sensor_id;sensor_type;location;lat;lon;timestamp;P1;durP1;ratioP1;P2;durP2;ratioP2
17949;SDS011;9100;48.700;9.316;2023-04-03T00:00:10;2.2;;;2.1;;
17949;SDS011;9100;48.700;9.316;2023-04-03T00:01:10;2.2;;;2.1;;
17949;SDS011;9100;48.700;9.316;2023-04-03T00:02:10;2.2;;;2.1;;
17949;SDS011;9100;48.700;9.316;2023-04-03T00:02:48;2;;;1.9;;
17949;SDS011;9100;48.700;9.316;2023-04-03T00:03:10;2;;;1.9;;
17949;SDS011;9100;48.700;9.316;2023-04-03T00:04:10;2;;;1.9;;
17949;SDS011;9100;48.700;9.316;2023-04-03T00:05:10;2;;;1.9;;
17949;SDS011;9100;48.700;9.316;2023-04-03T00:06:10;2;;;1.9;;
17949;SDS011;9100;48.700;9.316;2023-04-03T00:07:10;2;;;1.9;;
17949;SDS011;9100;48.700;9.316;2023-04-03T00:07:48;2.2;;;1.9;;
17949;SDS011;9100;48.700;9.316;2023-04-03T00:08:10;2.2;;;1.9;;
17949;SDS011;9100;48.700;9.316;2023-04-03T00:09:10;2.2;;;1.9;;
17949;SDS011;9100;48.700;9.316;2023-04-03T00:10:10;2.2;;;1.9;;
17949;SDS011;9100;48.700;9.316;2023-04-03T00:11:10;2.2;;;1.9;;
17949;SDS011;9100;48.700;9.316;2023-04-03T00:12:10;2.2;;;1.9;;
17949;SDS011;9100;48.700;9.316;2023-04-03T00:12:48;2;;;1.9;;
17949;SDS011;9100;48.700;9.316;2023-04-03T00:13:10;2;;;1.9;;
17949;SDS011;9100;48.700;9.316;2023-04-03T00:14:10;2;;;1.9;;
17949;SDS011;9100;48.700;9.316;2023-04-03T00:15:10;2;;;1.9;;
17949;SDS011;9100;48.700;9.316;2023-04-03T00:16:10;2;;;1.9;;
17949;SDS011;9100;48.700;9.316;2023-04-03T00:17:10;2;;;1.9;;
17949;SDS011;9100;48.700;9.316;2023-04-03T00:17:48;2.2;;;2.1;;
17949;SDS011;9100;48.700;9.316;2023-04-03T00:18:10;2.2;;;2.1;;
17949;SDS011;9100;48.700;9.316;2023-04-03T00:19:10;2.2;;;2.1;;
17949;SDS011;9100;48.700;9.316;2023-04-03T00:20:10;2.2;;;2.1;;
17949;SDS011;9100;48.700;9.316;2023-04-03T00:21:10;2.2;;;2.1;;
17949;SDS011;9100;48.700;9.316;2023-04-03T00:22:10;2.2;;;2.1;;
17949;SDS011;9100;48.700;9.316;2023-04-03T00:22:48;2;;;1.9;;
17949;SDS011;9100;48.700;9.316;2023-04-03T00:23:10;2;;;1.9;;
17949;SDS011;9100;48.700;9.316;2023-04-03T00:24:10;2;;;1.9;;
17949;SDS011;9100;48.700;9.316;2023-04-03T00:25:10;2;;;1.9;;
17949;SDS011;9100;48.700;9.316;2023-04-03T00:26:10;2;;;1.9;;
17949;SDS011;9100;48.700;9.316;2023-04-03T00:27:10;2;;;1.9;;
17949;SDS011;9100;48.700;9.316;2023-04-03T00:27:48;2.1;;;2;;
17949;SDS011;9100;48.700;9.316;2023-04-03T00:28:10;2.1;;;2;;
17949;SDS011;9100;48.700;9.316;2023-04-03T00:29:10;2.1;;;2;;
17949;SDS011;9100;48.700;9.316;2023-04-03T00:30:10;2.1;;;2;;
17949;SDS011;9100;48.700;9.316;2023-04-03T00:31:10;2.1;;;2;;
17949;SDS011;9100;48.700;9.316;2023-04-03T00:32:10;2.1;;;2;;
17949;SDS011;9100;48.700;9.316;2023-04-03T00:32:48;2.2;;;2.1;;
17949;SDS011;9100;48.700;9.316;2023-04-03T00:33:10;2.2;;;2.1;;
17949;SDS011;9100;48.700;9.316;2023-04-03T00:34:10;2.2;;;2.1;;
17949;SDS011;9100;48.700;9.316;2023-04-03T00:35:10;2.2;;;2.1;;
17949;SDS011;9100;48.700;9.316;2023-04-03T00:36:10;2.2;;;2.1;;
17949;SDS011;9100;48.700;9.316;2023-04-03T00:37:10;2.2;;;2.1;;
17949;SDS011;9100;48.700;9.316;2023-04-03T00:37:50;1.8;;;1.7;;
17949;SDS011;9100;48.700;9.316;2023-04-03T00:38:10;1.8;;;1.7;;
17949;SDS011;9100;48.700;9.316;2023-04-03T00:39:10;1.8;;;1.7;;
17949;SDS011;9100;48.700;9.316;2023-04-03T00:40:10;1.8;;;1.7;;
17949;SDS011;9100;48.700;9.316;2023-04-03T00:41:10;1.8;;;1.7;;
17949;SDS011;9100;48.700;9.316;2023-04-03T00:42:10;1.8;;;1.7;;
17949;SDS011;9100;48.700;9.316;2023-04-03T00:42:49;2.3;;;2.2;;
17949;SDS011;9100;48.700;9.316;2023-04-03T00:43:10;2.3;;;2.2;;
17949;SDS011;9100;48.700;9.316;2023-04-03T00:45:22;2.3;;;2.2;;
17949;SDS011;9100;48.700;9.316;2023-04-03T00:45:28;2.3;;;2.2;;
17949;SDS011;9100;48.700;9.316;2023-04-03T00:46:10;2.3;;;2.2;;
17949;SDS011;9100;48.700;9.316;2023-04-03T00:47:11;2.3;;;2.2;;
17949;SDS011;9100;48.700;9.316;2023-04-03T00:47:48;2.1;;;1.9;;
17949;SDS011;9100;48.700;9.316;2023-04-03T00:48:11;2.1;;;1.9;;
17949;SDS011;9100;48.700;9.316;2023-04-03T00:49:10;2.1;;;1.9;;
17949;SDS011;9100;48.700;9.316;2023-04-03T00:50:10;2.1;;;1.9;;
17949;SDS011;9100;48.700;9.316;2023-04-03T00:51:11;2.1;;;1.9;;
17949;SDS011;9100;48.700;9.316;2023-04-03T00:52:11;2.1;;;1.9;;
17949;SDS011;9100;48.700;9.316;2023-04-03T00:52:48;1.9;;;1.7;;
17949;SDS011;9100;48.700;9.316;2023-04-03T00:53:11;1.9;;;1.7;;
17949;SDS011;9100;48.700;9.316;2023-04-03T00:54:10;1.9;;;1.7;;
17949;SDS011;9100;48.700;9.316;2023-04-03T00:55:10;1.9;;;1.7;;
17949;SDS011;9100;48.700;9.316;2023-04-03T00:56:10;1.9;;;1.7;;
17949;SDS011;9100;48.700;9.316;2023-04-03T00:57:10;1.9;;;1.7;;
17949;SDS011;9100;48.700;9.316;2023-04-03T00:57:48;2.1;;;2;;
17949;SDS011;9100;48.700;9.316;2023-04-03T00:58:10;2.1;;;2;;
17949;SDS011;9100;48.700;9.316;2023-04-03T00:59:11;2.1;;;2;;
17949;SDS011;9100;48.700;9.316;2023-04-03T01:00:11;2.1;;;2;;
17949;SDS011;9100;48.700;9.316;2023-04-03T01:01:12;2.1;;;2;;
17949;SDS011;9100;48.700;9.316;2023-04-03T01:02:10;2.1;;;2;;
17949;SDS011;9100;48.700;9.316;2023-04-03T01:02:48;2.1;;;2;;
17949;SDS011;9100;48.700;9.316;2023-04-03T01:03:10;2.1;;;2;;
17949;SDS011;9100;48.700;9.316;2023-04-03T01:04:24;2.1;;;2;;
17949;SDS011;9100;48.700;9.316;2023-04-03T01:05:10;2.1;;;2;;
17949;SDS011;9100;48.700;9.316;2023-04-03T01:06:10;2.1;;;2;;
17949;SDS011;9100;48.700;9.316;2023-04-03T01:07:11;2.1;;;2;;
17949;SDS011;9100;48.700;9.316;2023-04-03T01:07:48;2.1;;;2;;
17949;SDS011;9100;48.700;9.316;2023-04-03T01:08:10;2.1;;;2;;
17949;SDS011;9100;48.700;9.316;2023-04-03T01:09:10;2.1;;;2;;
17949;SDS011;9100;48.700;9.316;2023-04-03T01:10:10;2.1;;;2;;
17949;SDS011;9100;48.700;9.316;2023-04-03T01:11:10;2.1;;;2;;
17949;SDS011;9100;48.700;9.316;2023-04-03T01:12:13;2.1;;;2;;
17949;SDS011;9100;48.700;9.316;2023-04-03T01:12:48;2.1;;;2;;
17949;SDS011;9100;48.700;9.316;2023-04-03T01:13:18;2.1;;;2;;
17949;SDS011;9100;48.700;9.316;2023-04-03T01:14:10;2.1;;;2;;
17949;SDS011;9100;48.700;9.316;2023-04-03T01:15:11;2.1;;;2;;
17949;SDS011;9100;48.700;9.316;2023-04-03T01:16:10;2.1;;;2;;
17949;SDS011;9100;48.700;9.316;2023-04-03T01:17:26;2.1;;;2;;
17949;SDS011;9100;48.700;9.316;2023-04-03T01:17:49;2.7;;;2.1;;
17949;SDS011;9100;48.700;9.316;2023-04-03T01:18:10;2.7;;;2.1;;
17949;SDS011;9100;48.700;9.316;2023-04-03T01:19:11;2.7;;;2.1;;
17949;SDS011;9100;48.700;9.316;2023-04-03T01:21:20;2.7;;;2.1;;
17949;SDS011;9100;48.700;9.316;2023-04-03T01:22:13;2.7;;;2.1;;
17949;SDS011;9100;48.700;9.316;2023-04-03T01:22:48;3.1;;;2.6;;
17949;SDS011;9100;48.700;9.316;2023-04-03T01:23:12;3.1;;;2.6;;
17949;SDS011;9100;48.700;9.316;2023-04-03T01:24:12;3.1;;;2.6;;
17949;SDS011;9100;48.700;9.316;2023-04-03T01:25:10;3.1;;;2.6;;
17949;SDS011;9100;48.700;9.316;2023-04-03T01:26:10;3.1;;;2.6;;
17949;SDS011;9100;48.700;9.316;2023-04-03T01:27:10;3.1;;;2.6;;
17949;SDS011;9100;48.700;9.316;2023-04-03T01:27:48;2.2;;;2;;
17949;SDS011;9100;48.700;9.316;2023-04-03T01:28:11;2.2;;;2;;
17949;SDS011;9100;48.700;9.316;2023-04-03T01:29:10;2.2;;;2;;
17949;SDS011;9100;48.700;9.316;2023-04-03T01:30:10;2.2;;;2;;
17949;SDS011;9100;48.700;9.316;2023-04-03T01:31:12;2.2;;;2;;
17949;SDS011;9100;48.700;9.316;2023-04-03T01:32:10;2.2;;;2;;
17949;SDS011;9100;48.700;9.316;2023-04-03T01:32:48;1.9;;;1.8;;
17949;SDS011;9100;48.700;9.316;2023-04-03T01:33:10;1.9;;;1.8;;
17949;SDS011;9100;48.700;9.316;2023-04-03T01:34:10;1.9;;;1.8;;
17949;SDS011;9100;48.700;9.316;2023-04-03T01:35:10;1.9;;;1.8;;
17949;SDS011;9100;48.700;9.316;2023-04-03T01:36:14;1.9;;;1.8;;
17949;SDS011;9100;48.700;9.316;2023-04-03T01:37:10;1.9;;;1.8;;
17949;SDS011;9100;48.700;9.316;2023-04-03T01:37:48;2.5;;;2.4;;
17949;SDS011;9100;48.700;9.316;2023-04-03T01:38:10;2.5;;;2.4;;
17949;SDS011;9100;48.700;9.316;2023-04-03T01:39:10;2.5;;;2.4;;
17949;SDS011;9100;48.700;9.316;2023-04-03T01:40:10;2.5;;;2.4;;
17949;SDS011;9100;48.700;9.316;2023-04-03T01:41:10;2.5;;;2.4;;
17949;SDS011;9100;48.700;9.316;2023-04-03T01:42:10;2.5;;;2.4;;
17949;SDS011;9100;48.700;9.316;2023-04-03T01:42:48;2.1;;;2;;
17949;SDS011;9100;48.700;9.316;2023-04-03T01:43:10;2.1;;;2;;
17949;SDS011;9100;48.700;9.316;2023-04-03T01:44:10;2.1;;;2;;
17949;SDS011;9100;48.700;9.316;2023-04-03T01:45:10;2.1;;;2;;
17949;SDS011;9100;48.700;9.316;2023-04-03T01:46:10;2.1;;;2;;
17949;SDS011;9100;48.700;9.316;2023-04-03T01:47:10;2.1;;;2;;
17949;SDS011;9100;48.700;9.316;2023-04-03T01:47:48;1.8;;;1.7;;
17949;SDS011;9100;48.700;9.316;2023-04-03T01:48:10;1.8;;;1.7;;
17949;SDS011;9100;48.700;9.316;2023-04-03T01:49:10;1.8;;;1.7;;
17949;SDS011;9100;48.700;9.316;2023-04-03T01:50:10;1.8;;;1.7;;
17949;SDS011;9100;48.700;9.316;2023-04-03T01:51:10;1.8;;;1.7;;
17949;SDS011;9100;48.700;9.316;2023-04-03T01:52:10;1.8;;;1.7;;
17949;SDS011;9100;48.700;9.316;2023-04-03T01:52:48;2.1;;;2;;
17949;SDS011;9100;48.700;9.316;2023-04-03T01:53:10;2.1;;;2;;
17949;SDS011;9100;48.700;9.316;2023-04-03T01:54:10;2.1;;;2;;
17949;SDS011;9100;48.700;9.316;2023-04-03T01:55:10;2.1;;;2;;
17949;SDS011;9100;48.700;9.316;2023-04-03T01:56:10;2.1;;;2;;
17949;SDS011;9100;48.700;9.316;2023-04-03T01:57:10;2.1;;;2;;
17949;SDS011;9100;48.700;9.316;2023-04-03T01:57:48;2.2;;;2.1;;
17949;SDS011;9100;48.700;9.316;2023-04-03T01:58:10;2.2;;;2.1;;
17949;SDS011;9100;48.700;9.316;2023-04-03T01:59:10;2.2;;;2.1;;
17949;SDS011;9100;48.700;9.316;2023-04-03T02:00:10;2.2;;;2.1;;
17949;SDS011;9100;48.700;9.316;2023-04-03T02:01:10;2.2;;;2.1;;
17949;SDS011;9100;48.700;9.316;2023-04-03T02:02:10;2.2;;;2.1;;
17949;SDS011;9100;48.700;9.316;2023-04-03T02:02:48;5.1;;;2.4;;
17949;SDS011;9100;48.700;9.316;2023-04-03T02:03:10;5.1;;;2.4;;
17949;SDS011;9100;48.700;9.316;2023-04-03T02:04:10;5.1;;;2.4;;
17949;SDS011;9100;48.700;9.316;2023-04-03T02:05:10;5.1;;;2.4;;
17949;SDS011;9100;48.700;9.316;2023-04-03T02:06:10;5.1;;;2.4;;
17949;SDS011;9100;48.700;9.316;2023-04-03T02:07:10;5.1;;;2.4;;
17949;SDS011;9100;48.700;9.316;2023-04-03T02:07:48;2;;;1.9;;
17949;SDS011;9100;48.700;9.316;2023-04-03T02:08:10;2;;;1.9;;
17949;SDS011;9100;48.700;9.316;2023-04-03T02:09:10;2;;;1.9;;
17949;SDS011;9100;48.700;9.316;2023-04-03T02:10:10;2;;;1.9;;
17949;SDS011;9100;48.700;9.316;2023-04-03T02:11:10;2;;;1.9;;
17949;SDS011;9100;48.700;9.316;2023-04-03T02:12:10;2;;;1.9;;
17949;SDS011;9100;48.700;9.316;2023-04-03T02:12:48;2.3;;;2;;
17949;SDS011;9100;48.700;9.316;2023-04-03T02:13:10;2.3;;;2;;
17949;SDS011;9100;48.700;9.316;2023-04-03T02:14:10;2.3;;;2;;
17949;SDS011;9100;48.700;9.316;2023-04-03T02:15:10;2.3;;;2;;
17949;SDS011;9100;48.700;9.316;2023-04-03T02:16:10;2.3;;;2;;
17949;SDS011;9100;48.700;9.316;2023-04-03T02:17:10;2.3;;;2;;
17949;SDS011;9100;48.700;9.316;2023-04-03T02:17:48;2;;;2;;
17949;SDS011;9100;48.700;9.316;2023-04-03T02:18:10;2;;;2;;
17949;SDS011;9100;48.700;9.316;2023-04-03T02:19:10;2;;;2;;
17949;SDS011;9100;48.700;9.316;2023-04-03T02:20:10;2;;;2;;
17949;SDS011;9100;48.700;9.316;2023-04-03T02:21:10;2;;;2;;
17949;SDS011;9100;48.700;9.316;2023-04-03T02:22:10;2;;;2;;
17949;SDS011;9100;48.700;9.316;2023-04-03T02:22:48;1.9;;;1.8;;
17949;SDS011;9100;48.700;9.316;2023-04-03T02:23:10;1.9;;;1.8;;
17949;SDS011;9100;48.700;9.316;2023-04-03T02:24:10;1.9;;;1.8;;
17949;SDS011;9100;48.700;9.316;2023-04-03T02:25:10;1.9;;;1.8;;
17949;SDS011;9100;48.700;9.316;2023-04-03T02:26:11;1.9;;;1.8;;
17949;SDS011;9100;48.700;9.316;2023-04-03T02:27:10;1.9;;;1.8;;
17949;SDS011;9100;48.700;9.316;2023-04-03T02:27:48;2.5;;;2.4;;
17949;SDS011;9100;48.700;9.316;2023-04-03T02:28:10;2.5;;;2.4;;
17949;SDS011;9100;48.700;9.316;2023-04-03T02:29:10;2.5;;;2.4;;
17949;SDS011;9100;48.700;9.316;2023-04-03T02:30:10;2.5;;;2.4;;
17949;SDS011;9100;48.700;9.316;2023-04-03T02:31:10;2.5;;;2.4;;
17949;SDS011;9100;48.700;9.316;2023-04-03T02:32:10;2.5;;;2.4;;
17949;SDS011;9100;48.700;9.316;2023-04-03T02:32:48;2.4;;;2.3;;
17949;SDS011;9100;48.700;9.316;2023-04-03T02:33:10;2.4;;;2.3;;
17949;SDS011;9100;48.700;9.316;2023-04-03T02:34:10;2.4;;;2.3;;
17949;SDS011;9100;48.700;9.316;2023-04-03T02:35:11;2.4;;;2.3;;
17949;SDS011;9100;48.700;9.316;2023-04-03T02:36:10;2.4;;;2.3;;
17949;SDS011;9100;48.700;9.316;2023-04-03T02:37:10;2.4;;;2.3;;
17949;SDS011;9100;48.700;9.316;2023-04-03T02:37:48;2;;;1.9;;
17949;SDS011;9100;48.700;9.316;2023-04-03T02:38:10;2;;;1.9;;
17949;SDS011;9100;48.700;9.316;2023-04-03T02:39:10;2;;;1.9;;
17949;SDS011;9100;48.700;9.316;2023-04-03T02:40:10;2;;;1.9;;
17949;SDS011;9100;48.700;9.316;2023-04-03T02:41:10;2;;;1.9;;
17949;SDS011;9100;48.700;9.316;2023-04-03T02:42:10;2;;;1.9;;
17949;SDS011;9100;48.700;9.316;2023-04-03T02:42:48;1.7;;;1.6;;
17949;SDS011;9100;48.700;9.316;2023-04-03T02:43:10;1.7;;;1.6;;
17949;SDS011;9100;48.700;9.316;2023-04-03T02:44:10;1.7;;;1.6;;
17949;SDS011;9100;48.700;9.316;2023-04-03T02:45:10;1.7;;;1.6;;
17949;SDS011;9100;48.700;9.316;2023-04-03T02:46:10;1.7;;;1.6;;
17949;SDS011;9100;48.700;9.316;2023-04-03T02:47:10;1.7;;;1.6;;
17949;SDS011;9100;48.700;9.316;2023-04-03T02:47:48;1.9;;;1.8;;
17949;SDS011;9100;48.700;9.316;2023-04-03T02:48:10;1.9;;;1.8;;
17949;SDS011;9100;48.700;9.316;2023-04-03T02:49:10;1.9;;;1.8;;
17949;SDS011;9100;48.700;9.316;2023-04-03T02:50:10;1.9;;;1.8;;
17949;SDS011;9100;48.700;9.316;2023-04-03T02:51:10;1.9;;;1.8;;
17949;SDS011;9100;48.700;9.316;2023-04-03T02:52:10;1.9;;;1.8;;
17949;SDS011;9100;48.700;9.316;2023-04-03T02:52:48;3;;;2;;
17949;SDS011;9100;48.700;9.316;2023-04-03T02:53:10;3;;;2;;
17949;SDS011;9100;48.700;9.316;2023-04-03T02:54:10;3;;;2;;
17949;SDS011;9100;48.700;9.316;2023-04-03T02:55:12;3;;;2;;
17949;SDS011;9100;48.700;9.316;2023-04-03T02:56:10;3;;;2;;
17949;SDS011;9100;48.700;9.316;2023-04-03T02:57:10;3;;;2;;
17949;SDS011;9100;48.700;9.316;2023-04-03T02:57:48;3.1;;;1.7;;
17949;SDS011;9100;48.700;9.316;2023-04-03T02:58:10;3.1;;;1.7;;
17949;SDS011;9100;48.700;9.316;2023-04-03T02:59:10;3.1;;;1.7;;
17949;SDS011;9100;48.700;9.316;2023-04-03T03:00:10;3.1;;;1.7;;
17949;SDS011;9100;48.700;9.316;2023-04-03T03:01:10;3.1;;;1.7;;
17949;SDS011;9100;48.700;9.316;2023-04-03T03:02:10;3.1;;;1.7;;
17949;SDS011;9100;48.700;9.316;2023-04-03T03:02:48;2.3;;;1.8;;
17949;SDS011;9100;48.700;9.316;2023-04-03T03:03:10;2.3;;;1.8;;
17949;SDS011;9100;48.700;9.316;2023-04-03T03:04:10;2.3;;;1.8;;
17949;SDS011;9100;48.700;9.316;2023-04-03T03:05:10;2.3;;;1.8;;
17949;SDS011;9100;48.700;9.316;2023-04-03T03:06:10;2.3;;;1.8;;
17949;SDS011;9100;48.700;9.316;2023-04-03T03:07:10;2.3;;;1.8;;
17949;SDS011;9100;48.700;9.316;2023-04-03T03:07:48;1.9;;;1.9;;
17949;SDS011;9100;48.700;9.316;2023-04-03T03:08:10;1.9;;;1.9;;
17949;SDS011;9100;48.700;9.316;2023-04-03T03:09:10;1.9;;;1.9;;
17949;SDS011;9100;48.700;9.316;2023-04-03T03:10:10;1.9;;;1.9;;
17949;SDS011;9100;48.700;9.316;2023-04-03T03:11:10;1.9;;;1.9;;
17949;SDS011;9100;48.700;9.316;2023-04-03T03:12:10;1.9;;;1.9;;
17949;SDS011;9100;48.700;9.316;2023-04-03T03:12:48;2.3;;;2.2;;
17949;SDS011;9100;48.700;9.316;2023-04-03T03:13:10;2.3;;;2.2;;
17949;SDS011;9100;48.700;9.316;2023-04-03T03:14:10;2.3;;;2.2;;
17949;SDS011;9100;48.700;9.316;2023-04-03T03:15:10;2.3;;;2.2;;
17949;SDS011;9100;48.700;9.316;2023-04-03T03:16:10;2.3;;;2.2;;
17949;SDS011;9100;48.700;9.316;2023-04-03T03:17:10;2.3;;;2.2;;
17949;SDS011;9100;48.700;9.316;2023-04-03T03:17:48;1.7;;;1.6;;
17949;SDS011;9100;48.700;9.316;2023-04-03T03:18:10;1.7;;;1.6;;
17949;SDS011;9100;48.700;9.316;2023-04-03T03:19:10;1.7;;;1.6;;
17949;SDS011;9100;48.700;9.316;2023-04-03T03:20:10;1.7;;;1.6;;
17949;SDS011;9100;48.700;9.316;2023-04-03T03:21:10;1.7;;;1.6;;
17949;SDS011;9100;48.700;9.316;2023-04-03T03:22:10;1.7;;;1.6;;
17949;SDS011;9100;48.700;9.316;2023-04-03T03:22:48;1.8;;;1.8;;
17949;SDS011;9100;48.700;9.316;2023-04-03T03:23:10;1.8;;;1.8;;
17949;SDS011;9100;48.700;9.316;2023-04-03T03:24:10;1.8;;;1.8;;
17949;SDS011;9100;48.700;9.316;2023-04-03T03:25:10;1.8;;;1.8;;
17949;SDS011;9100;48.700;9.316;2023-04-03T03:26:10;1.8;;;1.8;;
17949;SDS011;9100;48.700;9.316;2023-04-03T03:27:10;1.8;;;1.8;;
17949;SDS011;9100;48.700;9.316;2023-04-03T03:27:48;1.7;;;1.6;;
17949;SDS011;9100;48.700;9.316;2023-04-03T03:28:10;1.7;;;1.6;;
17949;SDS011;9100;48.700;9.316;2023-04-03T03:29:10;1.7;;;1.6;;
17949;SDS011;9100;48.700;9.316;2023-04-03T03:30:10;1.7;;;1.6;;
17949;SDS011;9100;48.700;9.316;2023-04-03T03:31:10;1.7;;;1.6;;
17949;SDS011;9100;48.700;9.316;2023-04-03T03:32:10;1.7;;;1.6;;
17949;SDS011;9100;48.700;9.316;2023-04-03T03:32:48;1.5;;;1.5;;
17949;SDS011;9100;48.700;9.316;2023-04-03T03:33:10;1.5;;;1.5;;
17949;SDS011;9100;48.700;9.316;2023-04-03T03:34:10;1.5;;;1.5;;
17949;SDS011;9100;48.700;9.316;2023-04-03T03:35:10;1.5;;;1.5;;
17949;SDS011;9100;48.700;9.316;2023-04-03T03:36:10;1.5;;;1.5;;
17949;SDS011;9100;48.700;9.316;2023-04-03T03:37:10;1.5;;;1.5;;
17949;SDS011;9100;48.700;9.316;2023-04-03T03:37:48;2;;;1.7;;
17949;SDS011;9100;48.700;9.316;2023-04-03T03:38:10;2;;;1.7;;
17949;SDS011;9100;48.700;9.316;2023-04-03T03:39:10;2;;;1.7;;
17949;SDS011;9100;48.700;9.316;2023-04-03T03:40:10;2;;;1.7;;
17949;SDS011;9100;48.700;9.316;2023-04-03T03:41:10;2;;;1.7;;
17949;SDS011;9100;48.700;9.316;2023-04-03T03:42:10;2;;;1.7;;
17949;SDS011;9100;48.700;9.316;2023-04-03T03:42:48;1.9;;;1.8;;
17949;SDS011;9100;48.700;9.316;2023-04-03T03:43:10;1.9;;;1.8;;
17949;SDS011;9100;48.700;9.316;2023-04-03T03:44:10;1.9;;;1.8;;
17949;SDS011;9100;48.700;9.316;2023-04-03T03:45:10;1.9;;;1.8;;
17949;SDS011;9100;48.700;9.316;2023-04-03T03:46:10;1.9;;;1.8;;
17949;SDS011;9100;48.700;9.316;2023-04-03T03:47:10;1.9;;;1.8;;
17949;SDS011;9100;48.700;9.316;2023-04-03T03:47:48;3.6;;;1.8;;
17949;SDS011;9100;48.700;9.316;2023-04-03T03:48:10;3.6;;;1.8;;
17949;SDS011;9100;48.700;9.316;2023-04-03T03:49:10;3.6;;;1.8;;
17949;SDS011;9100;48.700;9.316;2023-04-03T03:50:10;3.6;;;1.8;;
17949;SDS011;9100;48.700;9.316;2023-04-03T03:51:10;3.6;;;1.8;;
17949;SDS011;9100;48.700;9.316;2023-04-03T03:52:10;3.6;;;1.8;;
17949;SDS011;9100;48.700;9.316;2023-04-03T03:52:48;1.9;;;1.8;;
17949;SDS011;9100;48.700;9.316;2023-04-03T03:53:10;1.9;;;1.8;;
17949;SDS011;9100;48.700;9.316;2023-04-03T03:54:10;1.9;;;1.8;;
17949;SDS011;9100;48.700;9.316;2023-04-03T03:55:10;1.9;;;1.8;;
17949;SDS011;9100;48.700;9.316;2023-04-03T03:56:10;1.9;;;1.8;;
17949;SDS011;9100;48.700;9.316;2023-04-03T03:57:10;1.9;;;1.8;;
17949;SDS011;9100;48.700;9.316;2023-04-03T03:57:48;1.7;;;1.6;;
17949;SDS011;9100;48.700;9.316;2023-04-03T03:58:10;1.7;;;1.6;;
17949;SDS011;9100;48.700;9.316;2023-04-03T03:59:11;1.7;;;1.6;;
17949;SDS011;9100;48.700;9.316;2023-04-03T04:00:10;1.7;;;1.6;;
17949;SDS011;9100;48.700;9.316;2023-04-03T04:01:10;1.7;;;1.6;;
17949;SDS011;9100;48.700;9.316;2023-04-03T04:02:10;1.7;;;1.6;;
17949;SDS011;9100;48.700;9.316;2023-04-03T04:02:48;1.9;;;1.8;;
17949;SDS011;9100;48.700;9.316;2023-04-03T04:03:10;1.9;;;1.8;;
17949;SDS011;9100;48.700;9.316;2023-04-03T04:04:10;1.9;;;1.8;;
17949;SDS011;9100;48.700;9.316;2023-04-03T04:05:10;1.9;;;1.8;;
17949;SDS011;9100;48.700;9.316;2023-04-03T04:06:10;1.9;;;1.8;;
17949;SDS011;9100;48.700;9.316;2023-04-03T04:07:10;1.9;;;1.8;;
17949;SDS011;9100;48.700;9.316;2023-04-03T04:07:48;1.9;;;1.8;;
17949;SDS011;9100;48.700;9.316;2023-04-03T04:08:10;1.9;;;1.8;;
17949;SDS011;9100;48.700;9.316;2023-04-03T04:09:11;1.9;;;1.8;;
17949;SDS011;9100;48.700;9.316;2023-04-03T04:10:10;1.9;;;1.8;;
17949;SDS011;9100;48.700;9.316;2023-04-03T04:11:10;1.9;;;1.8;;
17949;SDS011;9100;48.700;9.316;2023-04-03T04:12:10;1.9;;;1.8;;
17949;SDS011;9100;48.700;9.316;2023-04-03T04:12:48;1.9;;;1.8;;
17949;SDS011;9100;48.700;9.316;2023-04-03T04:13:10;1.9;;;1.8;;
17949;SDS011;9100;48.700;9.316;2023-04-03T04:14:10;1.9;;;1.8;;
17949;SDS011;9100;48.700;9.316;2023-04-03T04:15:10;1.9;;;1.8;;
17949;SDS011;9100;48.700;9.316;2023-04-03T04:16:10;1.9;;;1.8;;
17949;SDS011;9100;48.700;9.316;2023-04-03T04:17:10;1.9;;;1.8;;
17949;SDS011;9100;48.700;9.316;2023-04-03T04:17:48;1.9;;;1.8;;
17949;SDS011;9100;48.700;9.316;2023-04-03T04:18:10;1.9;;;1.8;;
17949;SDS011;9100;48.700;9.316;2023-04-03T04:19:10;1.9;;;1.8;;
17949;SDS011;9100;48.700;9.316;2023-04-03T04:20:10;1.9;;;1.8;;
17949;SDS011;9100;48.700;9.316;2023-04-03T04:21:10;1.9;;;1.8;;
17949;SDS011;9100;48.700;9.316;2023-04-03T04:22:10;1.9;;;1.8;;
17949;SDS011;9100;48.700;9.316;2023-04-03T04:22:48;1.7;;;1.6;;
17949;SDS011;9100;48.700;9.316;2023-04-03T04:23:10;1.7;;;1.6;;
17949;SDS011;9100;48.700;9.316;2023-04-03T04:24:10;1.7;;;1.6;;
17949;SDS011;9100;48.700;9.316;2023-04-03T04:25:10;1.7;;;1.6;;
17949;SDS011;9100;48.700;9.316;2023-04-03T04:26:10;1.7;;;1.6;;
17949;SDS011;9100;48.700;9.316;2023-04-03T04:27:10;1.7;;;1.6;;
17949;SDS011;9100;48.700;9.316;2023-04-03T04:27:48;1.8;;;1.7;;
17949;SDS011;9100;48.700;9.316;2023-04-03T04:28:10;1.8;;;1.7;;
17949;SDS011;9100;48.700;9.316;2023-04-03T04:29:10;1.8;;;1.7;;
17949;SDS011;9100;48.700;9.316;2023-04-03T04:30:10;1.8;;;1.7;;
17949;SDS011;9100;48.700;9.316;2023-04-03T04:31:10;1.8;;;1.7;;
17949;SDS011;9100;48.700;9.316;2023-04-03T04:32:10;1.8;;;1.7;;
17949;SDS011;9100;48.700;9.316;2023-04-03T04:32:48;1.9;;;1.8;;
17949;SDS011;9100;48.700;9.316;2023-04-03T04:33:10;1.9;;;1.8;;
17949;SDS011;9100;48.700;9.316;2023-04-03T04:34:10;1.9;;;1.8;;
17949;SDS011;9100;48.700;9.316;2023-04-03T04:35:10;1.9;;;1.8;;
17949;SDS011;9100;48.700;9.316;2023-04-03T04:36:10;1.9;;;1.8;;
17949;SDS011;9100;48.700;9.316;2023-04-03T04:37:10;1.9;;;1.8;;
17949;SDS011;9100;48.700;9.316;2023-04-03T04:37:48;1.6;;;1.5;;
17949;SDS011;9100;48.700;9.316;2023-04-03T04:38:10;1.6;;;1.5;;
17949;SDS011;9100;48.700;9.316;2023-04-03T04:39:10;1.6;;;1.5;;
17949;SDS011;9100;48.700;9.316;2023-04-03T04:40:10;1.6;;;1.5;;
17949;SDS011;9100;48.700;9.316;2023-04-03T04:41:10;1.6;;;1.5;;
17949;SDS011;9100;48.700;9.316;2023-04-03T04:42:10;1.6;;;1.5;;
17949;SDS011;9100;48.700;9.316;2023-04-03T04:42:48;1.7;;;1.6;;
17949;SDS011;9100;48.700;9.316;2023-04-03T04:43:10;1.7;;;1.6;;
17949;SDS011;9100;48.700;9.316;2023-04-03T04:44:10;1.7;;;1.6;;
17949;SDS011;9100;48.700;9.316;2023-04-03T04:45:10;1.7;;;1.6;;
17949;SDS011;9100;48.700;9.316;2023-04-03T04:46:10;1.7;;;1.6;;
17949;SDS011;9100;48.700;9.316;2023-04-03T04:47:10;1.7;;;1.6;;
17949;SDS011;9100;48.700;9.316;2023-04-03T04:47:48;1.6;;;1.5;;
17949;SDS011;9100;48.700;9.316;2023-04-03T04:48:10;1.6;;;1.5;;
17949;SDS011;9100;48.700;9.316;2023-04-03T04:49:10;1.6;;;1.5;;
17949;SDS011;9100;48.700;9.316;2023-04-03T04:50:10;1.6;;;1.5;;
17949;SDS011;9100;48.700;9.316;2023-04-03T04:51:10;1.6;;;1.5;;
17949;SDS011;9100;48.700;9.316;2023-04-03T04:52:10;1.6;;;1.5;;
17949;SDS011;9100;48.700;9.316;2023-04-03T04:52:48;1.7;;;1.6;;
17949;SDS011;9100;48.700;9.316;2023-04-03T04:53:10;1.7;;;1.6;;
17949;SDS011;9100;48.700;9.316;2023-04-03T04:54:10;1.7;;;1.6;;
17949;SDS011;9100;48.700;9.316;2023-04-03T04:55:10;1.7;;;1.6;;
17949;SDS011;9100;48.700;9.316;2023-04-03T04:56:10;1.7;;;1.6;;
17949;SDS011;9100;48.700;9.316;2023-04-03T04:57:10;1.7;;;1.6;;
17949;SDS011;9100;48.700;9.316;2023-04-03T04:57:48;1.6;;;1.5;;
17949;SDS011;9100;48.700;9.316;2023-04-03T04:58:10;1.6;;;1.5;;
17949;SDS011;9100;48.700;9.316;2023-04-03T04:59:10;1.6;;;1.5;;
17949;SDS011;9100;48.700;9.316;2023-04-03T05:00:10;1.6;;;1.5;;
17949;SDS011;9100;48.700;9.316;2023-04-03T05:01:10;1.6;;;1.5;;
17949;SDS011;9100;48.700;9.316;2023-04-03T05:02:10;1.6;;;1.5;;
17949;SDS011;9100;48.700;9.316;2023-04-03T05:02:48;1.7;;;1.5;;
17949;SDS011;9100;48.700;9.316;2023-04-03T05:03:10;1.7;;;1.5;;
17949;SDS011;9100;48.700;9.316;2023-04-03T05:04:10;1.7;;;1.5;;
17949;SDS011;9100;48.700;9.316;2023-04-03T05:05:10;1.7;;;1.5;;
17949;SDS011;9100;48.700;9.316;2023-04-03T05:06:10;1.7;;;1.5;;
17949;SDS011;9100;48.700;9.316;2023-04-03T05:07:10;1.7;;;1.5;;
17949;SDS011;9100;48.700;9.316;2023-04-03T05:07:48;2.2;;;2;;
17949;SDS011;9100;48.700;9.316;2023-04-03T05:08:10;2.2;;;2;;
17949;SDS011;9100;48.700;9.316;2023-04-03T05:09:10;2.2;;;2;;
17949;SDS011;9100;48.700;9.316;2023-04-03T05:10:10;2.2;;;2;;
17949;SDS011;9100;48.700;9.316;2023-04-03T05:11:10;2.2;;;2;;
17949;SDS011;9100;48.700;9.316;2023-04-03T05:12:10;2.2;;;2;;
17949;SDS011;9100;48.700;9.316;2023-04-03T05:12:48;1.6;;;1.6;;
17949;SDS011;9100;48.700;9.316;2023-04-03T05:13:10;1.6;;;1.6;;
17949;SDS011;9100;48.700;9.316;2023-04-03T05:14:10;1.6;;;1.6;;
17949;SDS011;9100;48.700;9.316;2023-04-03T05:15:10;1.6;;;1.6;;
17949;SDS011;9100;48.700;9.316;2023-04-03T05:16:10;1.6;;;1.6;;
17949;SDS011;9100;48.700;9.316;2023-04-03T05:17:10;1.6;;;1.6;;
17949;SDS011;9100;48.700;9.316;2023-04-03T05:17:48;1.6;;;1.5;;
17949;SDS011;9100;48.700;9.316;2023-04-03T05:18:10;1.6;;;1.5;;
17949;SDS011;9100;48.700;9.316;2023-04-03T05:19:10;1.6;;;1.5;;